createdAt,value
2022-08-03T00:00:23.083Z,16.12
2022-08-03T00:01:23.086Z,16.11
2022-08-03T00:02:23.069Z,16.04
2022-08-03T00:03:23.161Z,16.01
2022-08-03T00:04:23.061Z,16.00
2022-08-03T00:05:23.082Z,15.97
2022-08-03T00:06:23.028Z,15.97
2022-08-03T00:07:23.031Z,15.94
2022-08-03T00:08:23.004Z,15.93
2022-08-03T00:09:23.037Z,15.94
2022-08-03T00:10:22.986Z,15.96
2022-08-03T00:11:22.982Z,15.96
2022-08-03T00:12:22.984Z,15.96
2022-08-03T00:13:22.976Z,15.99
2022-08-03T00:14:22.979Z,15.97
2022-08-03T00:15:22.952Z,15.97
2022-08-03T00:16:23.167Z,16.00
2022-08-03T00:17:22.945Z,16.00
2022-08-03T00:18:22.914Z,15.97
2022-08-03T00:19:22.919Z,15.97
2022-08-03T00:20:22.925Z,15.94
2022-08-03T00:21:22.899Z,15.92
2022-08-03T00:22:22.877Z,15.88
2022-08-03T00:23:22.906Z,15.88
2022-08-03T00:24:22.873Z,15.88
2022-08-03T00:25:22.877Z,15.89
2022-08-03T00:26:22.853Z,15.86
2022-08-03T00:27:22.847Z,15.85
2022-08-03T00:28:22.826Z,15.86
2022-08-03T00:29:22.851Z,15.89
2022-08-03T00:30:22.834Z,15.89
2022-08-03T00:31:40.250Z,15.92
2022-08-03T00:32:24.145Z,15.92
2022-08-03T00:33:22.799Z,15.93
2022-08-03T00:34:36.597Z,15.97
2022-08-03T00:35:32.480Z,15.97
2022-08-03T00:36:22.753Z,15.97
2022-08-03T00:37:22.761Z,15.97
2022-08-03T00:38:22.740Z,15.97
2022-08-03T00:39:22.732Z,15.97
2022-08-03T00:40:22.733Z,15.93
2022-08-03T00:41:22.742Z,15.89
2022-08-03T00:42:22.702Z,15.85
2022-08-03T00:43:22.724Z,15.82
2022-08-03T00:44:22.692Z,15.79
2022-08-03T00:45:22.671Z,15.75
2022-08-03T00:46:22.747Z,15.72
2022-08-03T00:47:22.676Z,15.67
2022-08-03T00:48:33.341Z,15.66
2022-08-03T00:49:22.689Z,15.60
2022-08-03T00:50:22.644Z,15.61
2022-08-03T00:51:22.618Z,15.64
2022-08-03T00:52:22.889Z,15.64
2022-08-03T00:53:22.612Z,15.67
2022-08-03T00:54:22.624Z,15.70
2022-08-03T00:55:22.589Z,15.75
2022-08-03T00:56:22.565Z,15.74
2022-08-03T00:57:22.576Z,15.75
2022-08-03T00:58:22.601Z,15.74
2022-08-03T00:59:22.550Z,15.74
2022-08-03T01:00:22.687Z,15.72
2022-08-03T01:01:22.642Z,15.70
2022-08-03T01:02:22.546Z,15.68
2022-08-03T01:03:22.511Z,15.67
2022-08-03T01:04:22.497Z,15.66
2022-08-03T01:05:22.493Z,15.66
2022-08-03T01:06:22.482Z,15.64
2022-08-03T01:07:22.478Z,15.64
2022-08-03T01:08:22.491Z,15.61
2022-08-03T01:09:22.477Z,15.60
2022-08-03T01:10:22.442Z,15.56
2022-08-03T01:11:22.444Z,15.51
2022-08-03T01:12:22.430Z,15.46
2022-08-03T01:14:01.365Z,15.45
2022-08-03T01:14:22.701Z,15.43
2022-08-03T01:15:22.408Z,15.43
2022-08-03T01:16:22.392Z,15.41
2022-08-03T01:17:22.401Z,15.39
2022-08-03T01:18:22.409Z,15.41
2022-08-03T01:19:22.380Z,15.38
2022-08-03T01:20:22.373Z,15.38
2022-08-03T01:21:22.355Z,15.39
2022-08-03T01:22:22.356Z,15.39
2022-08-03T01:23:22.394Z,15.38
2022-08-03T01:24:22.338Z,15.36
2022-08-03T01:25:22.328Z,15.35
2022-08-03T01:26:22.305Z,15.38
2022-08-03T01:27:22.307Z,15.36
2022-08-03T01:28:22.307Z,15.33
2022-08-03T01:29:22.323Z,15.30
2022-08-03T01:30:22.293Z,15.26
2022-08-03T01:31:22.274Z,15.24
2022-08-03T01:32:58.899Z,15.23
2022-08-03T01:33:22.296Z,15.20
2022-08-03T01:34:22.276Z,15.20
2022-08-03T01:35:22.264Z,15.24
2022-08-03T01:36:22.216Z,15.27
2022-08-03T01:37:22.240Z,15.28
2022-08-03T01:38:22.203Z,15.27
2022-08-03T01:39:22.205Z,15.24
2022-08-03T01:40:22.198Z,15.23
2022-08-03T01:41:22.190Z,15.20
2022-08-03T01:42:22.163Z,15.20
2022-08-03T01:43:55.147Z,15.17
2022-08-03T01:44:31.655Z,15.17
2022-08-03T01:45:22.170Z,15.17
2022-08-03T01:46:22.137Z,15.17
2022-08-03T01:47:22.125Z,15.20
2022-08-03T01:48:22.115Z,15.21
2022-08-03T01:49:22.138Z,15.23
2022-08-03T01:50:22.115Z,15.21
2022-08-03T01:51:22.103Z,15.20
2022-08-03T01:52:22.080Z,15.17
2022-08-03T01:53:22.098Z,15.13
2022-08-03T01:54:22.080Z,15.11
2022-08-03T01:55:22.079Z,15.08
2022-08-03T01:56:22.404Z,15.03
2022-08-03T01:57:22.050Z,14.99
2022-08-03T01:58:22.055Z,15.02
2022-08-03T01:59:22.025Z,15.03
2022-08-03T02:00:22.018Z,15.01
2022-08-03T02:01:22.110Z,14.98
2022-08-03T02:02:32.975Z,14.95
2022-08-03T02:03:21.994Z,14.95
2022-08-03T02:04:21.972Z,14.94
2022-08-03T02:05:21.979Z,14.88
2022-08-03T02:07:02.103Z,14.84
2022-08-03T02:07:21.970Z,14.84
2022-08-03T02:08:21.947Z,14.83
2022-08-03T02:09:21.928Z,14.80
2022-08-03T02:10:34.213Z,14.75
2022-08-03T02:11:21.916Z,14.75
2022-08-03T02:12:21.923Z,14.72
2022-08-03T02:13:21.916Z,14.69
2022-08-03T02:14:21.876Z,14.68
2022-08-03T02:15:21.917Z,14.67
2022-08-03T02:16:21.859Z,14.69
2022-08-03T02:17:38.615Z,14.68
2022-08-03T02:18:21.865Z,14.69
2022-08-03T02:19:21.835Z,14.69
2022-08-03T02:20:21.851Z,14.69
2022-08-03T02:21:21.830Z,14.71
2022-08-03T02:22:21.828Z,14.71
2022-08-03T02:23:21.828Z,14.72
2022-08-03T02:24:21.801Z,14.72
2022-08-03T02:25:21.806Z,14.71
2022-08-03T02:26:21.780Z,14.71
2022-08-03T02:27:21.768Z,14.69
2022-08-03T02:28:21.744Z,14.67
2022-08-03T02:29:21.742Z,14.71
2022-08-03T02:30:21.740Z,14.72
2022-08-03T02:31:21.748Z,14.78
2022-08-03T02:32:21.724Z,14.74
2022-08-03T02:33:21.705Z,14.75
2022-08-03T02:34:21.711Z,14.72
2022-08-03T02:35:21.688Z,14.74
2022-08-03T02:36:21.696Z,14.75
2022-08-03T02:37:21.690Z,14.78
2022-08-03T02:38:21.677Z,14.80
2022-08-03T02:39:21.665Z,14.80
2022-08-03T02:40:21.685Z,14.81
2022-08-03T02:41:21.636Z,14.81
2022-08-03T02:42:21.763Z,14.78
2022-08-03T02:43:21.640Z,14.81
2022-08-03T02:44:21.618Z,14.81
2022-08-03T02:45:21.614Z,14.84
2022-08-03T02:46:21.608Z,14.84
2022-08-03T02:47:21.593Z,14.83
2022-08-03T02:48:21.597Z,14.81
2022-08-03T02:49:49.960Z,14.81
2022-08-03T02:50:21.569Z,14.81
2022-08-03T02:51:21.572Z,14.80
2022-08-03T02:52:21.599Z,14.74
2022-08-03T02:53:21.543Z,14.69
2022-08-03T02:54:21.528Z,14.69
2022-08-03T02:55:21.505Z,14.71
2022-08-03T02:56:21.515Z,14.72
2022-08-03T02:57:21.496Z,14.72
2022-08-03T02:58:21.513Z,14.71
2022-08-03T02:59:21.466Z,14.68
2022-08-03T03:00:27.986Z,14.64
2022-08-03T03:01:21.530Z,14.61
2022-08-03T03:02:21.452Z,14.60
2022-08-03T03:03:21.455Z,14.60
2022-08-03T03:04:21.434Z,14.60
2022-08-03T03:05:54.774Z,14.61
2022-08-03T03:06:21.414Z,14.62
2022-08-03T03:07:21.420Z,14.61
2022-08-03T03:08:26.138Z,14.57
2022-08-03T03:09:21.401Z,14.60
2022-08-03T03:10:21.362Z,14.61
2022-08-03T03:11:21.377Z,14.65
2022-08-03T03:12:21.373Z,14.67
2022-08-03T03:13:21.374Z,14.65
2022-08-03T03:14:33.144Z,14.67
2022-08-03T03:15:21.355Z,14.67
2022-08-03T03:16:21.306Z,14.65
2022-08-03T03:17:21.266Z,14.67
2022-08-03T03:18:22.926Z,14.67
2022-08-03T03:19:23.858Z,14.65
2022-08-03T03:20:26.730Z,14.67
2022-08-03T03:21:21.298Z,14.74
2022-08-03T03:22:21.280Z,14.75
2022-08-03T03:23:21.269Z,14.78
2022-08-03T03:24:21.270Z,14.74
2022-08-03T03:25:21.205Z,14.71
2022-08-03T03:26:21.220Z,14.67
2022-08-03T03:27:21.215Z,14.65
2022-08-03T03:28:21.200Z,14.62
2022-08-03T03:29:21.169Z,14.62
2022-08-03T03:30:21.140Z,14.60
2022-08-03T03:31:21.167Z,14.62
2022-08-03T03:32:21.113Z,14.57
2022-08-03T03:33:21.121Z,14.53
2022-08-03T03:34:21.099Z,14.53
2022-08-03T03:35:21.113Z,14.57
2022-08-03T03:36:21.073Z,14.60
2022-08-03T03:37:21.069Z,14.57
2022-08-03T03:38:21.073Z,14.54
2022-08-03T03:39:21.052Z,14.54
2022-08-03T03:40:21.041Z,14.52
2022-08-03T03:41:21.049Z,14.50
2022-08-03T03:42:21.054Z,14.50
2022-08-03T03:43:21.021Z,14.47
2022-08-03T03:44:21.021Z,14.46
2022-08-03T03:45:21.011Z,14.52
2022-08-03T03:46:20.993Z,14.50
2022-08-03T03:47:32.982Z,14.46
2022-08-03T03:48:20.971Z,14.42
2022-08-03T03:49:20.995Z,14.39
2022-08-03T03:50:20.950Z,14.35
2022-08-03T03:51:20.961Z,14.32
2022-08-03T03:52:20.927Z,14.34
2022-08-03T03:53:20.927Z,14.35
2022-08-03T03:54:20.963Z,14.34
2022-08-03T03:55:20.906Z,14.35
2022-08-03T03:56:20.907Z,14.38
2022-08-03T03:57:20.891Z,14.42
2022-08-03T03:58:20.890Z,14.44
2022-08-03T03:59:20.876Z,14.47
2022-08-03T04:00:20.852Z,14.50
2022-08-03T04:01:20.935Z,14.52
2022-08-03T04:02:20.838Z,14.53
2022-08-03T04:03:20.835Z,14.53
2022-08-03T04:04:20.821Z,14.54
2022-08-03T04:05:20.813Z,14.57
2022-08-03T04:06:20.805Z,14.67
2022-08-03T04:07:20.808Z,14.88
2022-08-03T04:08:20.797Z,15.20
2022-08-03T04:09:20.773Z,15.48
2022-08-03T04:10:20.779Z,15.76
2022-08-03T04:11:20.760Z,16.04
2022-08-03T04:12:20.776Z,16.30
2022-08-03T04:13:20.738Z,16.49
2022-08-03T04:14:20.747Z,16.70
2022-08-03T04:15:20.720Z,16.88
2022-08-03T04:16:20.714Z,17.10
2022-08-03T04:17:20.797Z,17.32
2022-08-03T04:18:20.697Z,17.51
2022-08-03T04:19:23.343Z,17.73
2022-08-03T04:20:20.678Z,17.91
2022-08-03T04:21:20.661Z,18.17
2022-08-03T04:22:20.678Z,18.40
2022-08-03T04:23:20.647Z,18.64
2022-08-03T04:24:20.641Z,18.80
2022-08-03T04:25:20.625Z,19.01
2022-08-03T04:26:20.625Z,19.23
2022-08-03T04:27:20.644Z,19.38
2022-08-03T04:28:29.952Z,19.53
2022-08-03T04:29:20.596Z,19.63
2022-08-03T04:30:20.594Z,19.73
2022-08-03T04:31:20.574Z,19.78
2022-08-03T04:32:20.591Z,19.86
2022-08-03T04:33:20.566Z,19.95
2022-08-03T04:34:20.551Z,20.13
2022-08-03T04:35:20.540Z,20.28
2022-08-03T04:36:20.530Z,20.46
2022-08-03T04:37:20.541Z,20.41
2022-08-03T04:38:20.517Z,20.34
2022-08-03T04:39:20.515Z,20.25
2022-08-03T04:40:20.505Z,20.20
2022-08-03T04:41:20.495Z,20.30
2022-08-03T04:42:20.827Z,20.59
2022-08-03T04:43:20.479Z,20.90
2022-08-03T04:44:20.469Z,21.05
2022-08-03T04:45:20.464Z,21.27
2022-08-03T04:46:20.458Z,21.45
2022-08-03T04:47:20.448Z,21.61
2022-08-03T04:48:20.424Z,21.82
2022-08-03T04:49:20.479Z,22.01
2022-08-03T04:50:21.668Z,22.20
2022-08-03T04:51:20.400Z,22.43
2022-08-03T04:52:20.419Z,22.57
2022-08-03T04:53:20.382Z,22.60
2022-08-03T04:54:20.391Z,22.64
2022-08-03T04:55:20.356Z,22.67
2022-08-03T04:56:20.512Z,22.50
2022-08-03T04:57:23.110Z,22.44
2022-08-03T04:58:20.351Z,22.62
2022-08-03T04:59:20.325Z,22.57
2022-08-03T05:00:20.326Z,22.57
2022-08-03T05:01:20.432Z,22.50
2022-08-03T05:02:20.298Z,22.44
2022-08-03T05:03:25.017Z,22.37
2022-08-03T05:04:20.281Z,22.34
2022-08-03T05:05:20.293Z,22.31
2022-08-03T05:06:20.262Z,22.25
2022-08-03T05:07:24.808Z,22.16
2022-08-03T05:08:27.687Z,22.04
2022-08-03T05:09:25.942Z,21.88
2022-08-03T05:10:20.255Z,21.60
2022-08-03T05:11:20.214Z,21.30
2022-08-03T05:12:32.566Z,21.11
2022-08-03T05:13:28.712Z,20.89
2022-08-03T05:14:28.352Z,20.71
2022-08-03T05:15:28.254Z,20.49
2022-08-03T05:16:20.174Z,20.28
2022-08-03T05:17:20.184Z,20.08
2022-08-03T05:18:20.166Z,19.90
2022-08-03T05:19:20.164Z,19.76
2022-08-03T05:20:20.150Z,19.65
2022-08-03T05:21:20.124Z,19.60
2022-08-03T05:22:20.134Z,19.54
2022-08-03T05:23:20.124Z,19.53
2022-08-03T05:24:20.136Z,19.46
2022-08-03T05:25:23.361Z,19.39
2022-08-03T05:26:20.099Z,19.33
2022-08-03T05:27:20.077Z,19.33
2022-08-03T05:28:20.074Z,19.21
2022-08-03T05:29:20.066Z,19.11
2022-08-03T05:30:31.239Z,19.01
2022-08-03T05:31:20.065Z,18.94
2022-08-03T05:32:20.366Z,18.92
2022-08-03T05:33:20.093Z,18.92
2022-08-03T05:34:20.053Z,18.95
2022-08-03T05:35:57.882Z,18.98
2022-08-03T05:36:20.102Z,18.98
2022-08-03T05:37:20.065Z,19.06
2022-08-03T05:38:28.243Z,19.13
2022-08-03T05:39:19.979Z,19.20
2022-08-03T05:40:19.982Z,19.29
2022-08-03T05:41:21.731Z,19.33
2022-08-03T05:42:19.980Z,19.33
2022-08-03T05:43:19.932Z,19.35
2022-08-03T05:44:19.925Z,19.38
2022-08-03T05:45:20.003Z,19.40
2022-08-03T05:46:19.922Z,19.47
2022-08-03T05:47:19.902Z,19.46
2022-08-03T05:48:19.908Z,19.50
2022-08-03T05:49:19.916Z,19.51
2022-08-03T05:50:19.873Z,19.57
2022-08-03T05:51:19.871Z,19.60
2022-08-03T05:52:19.873Z,19.61
2022-08-03T05:53:19.904Z,19.63
2022-08-03T05:54:19.916Z,19.65
2022-08-03T05:55:19.817Z,19.60
2022-08-03T05:56:19.821Z,19.60
2022-08-03T05:57:19.842Z,19.61
2022-08-03T05:58:19.819Z,19.66
2022-08-03T05:59:37.707Z,19.69
2022-08-03T06:00:19.791Z,19.72
2022-08-03T06:01:19.816Z,19.76
2022-08-03T06:02:19.775Z,19.79
2022-08-03T06:03:19.776Z,19.84
2022-08-03T06:04:19.746Z,19.87
2022-08-03T06:05:19.734Z,19.90
2022-08-03T06:06:19.730Z,19.93
2022-08-03T06:07:19.724Z,19.98
2022-08-03T06:08:19.736Z,20.03
2022-08-03T06:09:19.700Z,20.09
2022-08-03T06:10:37.445Z,20.10
2022-08-03T06:11:19.681Z,20.13
2022-08-03T06:12:20.239Z,20.13
2022-08-03T06:13:19.666Z,20.15
2022-08-03T06:14:19.668Z,20.15
2022-08-03T06:15:19.649Z,20.09
2022-08-03T06:16:19.639Z,20.05
2022-08-03T06:17:19.630Z,19.95
2022-08-03T06:18:19.633Z,19.91
2022-08-03T06:19:19.641Z,19.91
2022-08-03T06:20:19.614Z,19.95
2022-08-03T06:21:19.591Z,20.00
2022-08-03T06:22:19.586Z,20.05
2022-08-03T06:23:19.586Z,20.12
2022-08-03T06:24:19.592Z,20.23
2022-08-03T06:25:21.297Z,20.30
2022-08-03T06:26:19.556Z,20.41
2022-08-03T06:27:19.585Z,20.51
2022-08-03T06:28:51.191Z,20.62
2022-08-03T06:29:19.549Z,20.66
2022-08-03T06:30:21.420Z,20.76
2022-08-03T06:31:19.498Z,20.84
2022-08-03T06:32:19.864Z,20.91
2022-08-03T06:33:19.480Z,20.98
2022-08-03T06:34:34.802Z,21.01
2022-08-03T06:35:19.481Z,21.02
2022-08-03T06:36:19.458Z,21.02
2022-08-03T06:37:19.446Z,21.06
2022-08-03T06:38:19.447Z,21.11
2022-08-03T06:39:19.463Z,21.14
2022-08-03T06:40:24.286Z,21.13
2022-08-03T06:41:19.427Z,21.11
2022-08-03T06:42:19.410Z,21.16
2022-08-03T06:43:19.413Z,21.14
2022-08-03T06:44:19.412Z,21.21
2022-08-03T06:45:19.418Z,21.23
2022-08-03T06:46:19.387Z,21.26
2022-08-03T06:47:19.378Z,21.27
2022-08-03T06:48:19.354Z,21.32
2022-08-03T06:49:19.661Z,21.39
2022-08-03T06:50:22.947Z,21.46
2022-08-03T06:51:19.363Z,21.51
2022-08-03T06:52:44.871Z,21.57
2022-08-03T06:53:21.213Z,21.61
2022-08-03T06:54:19.293Z,21.67
2022-08-03T06:55:19.299Z,21.75
2022-08-03T06:56:19.284Z,21.81
2022-08-03T06:57:19.264Z,21.82
2022-08-03T06:58:19.260Z,21.88
2022-08-03T07:00:11.052Z,21.94
2022-08-03T07:00:19.277Z,21.95
2022-08-03T07:01:19.364Z,21.98
2022-08-03T07:02:19.717Z,21.98
2022-08-03T07:03:19.216Z,22.01
2022-08-03T07:04:19.202Z,22.04
2022-08-03T07:05:19.190Z,22.07
2022-08-03T07:06:19.206Z,22.10
2022-08-03T07:07:19.178Z,22.13
2022-08-03T07:08:19.171Z,22.14
2022-08-03T07:09:19.164Z,22.22
2022-08-03T07:10:19.149Z,22.28
2022-08-03T07:11:19.161Z,22.29
2022-08-03T07:12:19.230Z,22.29
2022-08-03T07:13:19.119Z,22.37
2022-08-03T07:14:19.114Z,22.39
2022-08-03T07:15:20.190Z,22.41
2022-08-03T07:16:19.127Z,22.46
2022-08-03T07:17:19.081Z,22.47
2022-08-03T07:18:27.573Z,22.50
2022-08-03T07:19:19.081Z,22.50
2022-08-03T07:20:19.068Z,22.49
2022-08-03T07:21:19.049Z,22.50
2022-08-03T07:22:19.295Z,22.50
2022-08-03T07:23:19.489Z,22.50
2022-08-03T07:24:19.028Z,22.52
2022-08-03T07:25:19.009Z,22.53
2022-08-03T07:26:19.005Z,22.60
2022-08-03T07:27:19.007Z,22.64
2022-08-03T07:28:18.986Z,22.69
2022-08-03T07:29:18.971Z,22.72
2022-08-03T07:30:18.965Z,22.74
2022-08-03T07:31:18.953Z,22.75
2022-08-03T07:32:19.334Z,22.75
2022-08-03T07:33:18.933Z,22.80
2022-08-03T07:34:24.418Z,22.84
2022-08-03T07:35:25.069Z,22.89
2022-08-03T07:36:18.919Z,22.94
2022-08-03T07:37:18.935Z,22.97
2022-08-03T07:38:21.029Z,22.99
2022-08-03T07:39:18.886Z,23.01
2022-08-03T07:40:18.886Z,23.04
2022-08-03T07:41:18.869Z,23.05
2022-08-03T07:42:19.131Z,23.09
2022-08-03T07:43:18.867Z,23.17
2022-08-03T07:44:18.850Z,23.23
2022-08-03T07:45:18.831Z,23.27
2022-08-03T07:46:18.856Z,23.27
2022-08-03T07:47:22.489Z,23.27
2022-08-03T07:48:18.842Z,23.31
2022-08-03T07:49:18.888Z,23.32
2022-08-03T07:50:18.786Z,23.35
2022-08-03T07:51:18.779Z,23.40
2022-08-03T07:52:19.175Z,23.42
2022-08-03T07:53:26.815Z,23.43
2022-08-03T07:54:18.747Z,23.43
2022-08-03T07:55:18.737Z,23.49
2022-08-03T07:56:18.732Z,23.53
2022-08-03T07:57:18.757Z,23.58
2022-08-03T07:58:23.677Z,23.58
2022-08-03T07:59:18.705Z,23.64
2022-08-03T08:00:18.703Z,23.65
2022-08-03T08:01:18.766Z,23.70
2022-08-03T08:02:18.936Z,23.68
2022-08-03T08:03:18.681Z,23.70
2022-08-03T08:04:18.675Z,23.70
2022-08-03T08:05:18.657Z,23.67
2022-08-03T08:06:18.655Z,23.68
2022-08-03T08:07:18.653Z,23.68
2022-08-03T08:08:18.645Z,23.72
2022-08-03T08:09:18.626Z,23.72
2022-08-03T08:10:18.663Z,23.71
2022-08-03T08:11:18.614Z,23.71
2022-08-03T08:12:18.897Z,23.72
2022-08-03T08:13:18.611Z,23.75
2022-08-03T08:14:18.634Z,23.82
2022-08-03T08:15:18.629Z,23.86
2022-08-03T08:16:18.636Z,23.94
2022-08-03T08:17:18.620Z,24.01
2022-08-03T08:18:18.615Z,24.10
2022-08-03T08:19:18.619Z,24.17
2022-08-03T08:20:18.901Z,24.23
2022-08-03T08:21:18.640Z,24.26
2022-08-03T08:22:18.890Z,24.27
2022-08-03T08:23:38.655Z,24.29
2022-08-03T08:24:20.414Z,24.35
2022-08-03T08:25:19.470Z,24.39
2022-08-03T08:26:18.570Z,24.42
2022-08-03T08:27:18.523Z,24.44
2022-08-03T08:28:29.014Z,24.47
2022-08-03T08:29:18.549Z,24.50
2022-08-03T08:30:19.361Z,24.52
2022-08-03T08:31:18.475Z,24.50
2022-08-03T08:32:18.887Z,24.45
2022-08-03T08:33:22.554Z,24.47
2022-08-03T08:34:18.480Z,24.49
2022-08-03T08:35:18.397Z,24.50
2022-08-03T08:36:18.385Z,24.53
2022-08-03T08:37:18.373Z,24.53
2022-08-03T08:38:19.006Z,24.57
2022-08-03T08:39:18.444Z,24.59
2022-08-03T08:40:18.340Z,24.61
2022-08-03T08:41:18.338Z,24.64
2022-08-03T08:42:18.629Z,24.64
2022-08-03T08:43:18.328Z,24.67
2022-08-03T08:44:18.329Z,24.67
2022-08-03T08:45:18.294Z,24.67
2022-08-03T08:46:23.310Z,24.68
2022-08-03T08:47:18.322Z,24.69
2022-08-03T08:48:18.403Z,24.69
2022-08-03T08:49:18.364Z,24.69
2022-08-03T08:50:27.880Z,24.76
2022-08-03T08:51:18.249Z,24.80
2022-08-03T08:52:25.023Z,24.87
2022-08-03T08:53:20.716Z,24.90
2022-08-03T08:54:18.345Z,24.97
2022-08-03T08:55:18.235Z,25.01
2022-08-03T08:56:18.250Z,25.01
2022-08-03T08:57:40.763Z,25.00
2022-08-03T08:58:20.896Z,25.01
2022-08-03T08:59:18.187Z,25.06
2022-08-03T09:00:18.174Z,25.10
2022-08-03T09:01:18.443Z,25.15
2022-08-03T09:02:18.447Z,25.17
2022-08-03T09:03:22.681Z,25.19
2022-08-03T09:04:18.131Z,25.19
2022-08-03T09:05:18.418Z,25.22
2022-08-03T09:06:18.105Z,25.19
2022-08-03T09:07:20.340Z,25.16
2022-08-03T09:08:18.087Z,25.13
2022-08-03T09:09:28.630Z,25.15
2022-08-03T09:10:18.808Z,25.20
2022-08-03T09:11:18.067Z,25.22
2022-08-03T09:12:40.839Z,25.27
2022-08-03T09:13:18.055Z,25.30
2022-08-03T09:14:34.189Z,25.35
2022-08-03T09:15:18.115Z,25.42
2022-08-03T09:16:18.030Z,25.46
2022-08-03T09:17:18.076Z,25.53
2022-08-03T09:18:17.994Z,25.57
2022-08-03T09:19:17.999Z,25.61
2022-08-03T09:20:18.050Z,25.65
2022-08-03T09:21:34.424Z,25.69
2022-08-03T09:22:18.668Z,25.71
2022-08-03T09:23:51.845Z,25.74
2022-08-03T09:24:37.275Z,25.79
2022-08-03T09:25:25.289Z,25.80
2022-08-03T09:26:17.952Z,25.83
2022-08-03T09:27:18.189Z,25.82
2022-08-03T09:28:52.589Z,25.77
2022-08-03T09:29:17.915Z,25.65
2022-08-03T09:30:33.508Z,25.64
2022-08-03T09:31:17.902Z,25.67
2022-08-03T09:32:17.880Z,25.68
2022-08-03T09:33:17.893Z,25.71
2022-08-03T09:34:17.943Z,25.72
2022-08-03T09:35:27.888Z,25.74
2022-08-03T09:36:17.922Z,25.72
2022-08-03T09:37:18.122Z,25.74
2022-08-03T09:38:17.815Z,25.77
2022-08-03T09:39:17.817Z,25.74
2022-08-03T09:40:17.798Z,25.72
2022-08-03T09:41:17.823Z,25.72
2022-08-03T09:42:18.435Z,25.74
2022-08-03T09:43:17.771Z,25.77
2022-08-03T09:44:25.865Z,25.79
2022-08-03T09:45:17.770Z,25.83
2022-08-03T09:46:17.794Z,25.89
2022-08-03T09:47:18.697Z,25.94
2022-08-03T09:48:17.725Z,26.01
2022-08-03T09:49:17.812Z,26.02
2022-08-03T09:50:17.730Z,26.05
2022-08-03T09:52:23.034Z,26.08
2022-08-03T09:52:52.094Z,26.12
2022-08-03T09:53:17.689Z,26.18
2022-08-03T09:54:20.651Z,26.20
2022-08-03T09:56:30.746Z,26.21
2022-08-03T09:56:41.153Z,26.24
2022-08-03T09:57:17.819Z,26.25
2022-08-03T09:58:17.640Z,26.31
2022-08-03T09:59:17.629Z,26.35
2022-08-03T10:00:19.987Z,26.36
2022-08-03T10:01:24.078Z,26.32
2022-08-03T10:02:17.746Z,26.32
2022-08-03T10:03:17.746Z,26.32
2022-08-03T10:04:17.597Z,26.36
2022-08-03T10:05:19.979Z,26.35
2022-08-03T10:06:17.620Z,26.36
2022-08-03T10:07:17.807Z,26.37
2022-08-03T10:08:17.558Z,26.37
2022-08-03T10:09:17.544Z,26.39
2022-08-03T10:10:31.081Z,26.40
2022-08-03T10:11:17.530Z,26.43
2022-08-03T10:12:17.529Z,26.44
2022-08-03T10:13:17.532Z,26.46
2022-08-03T10:14:18.233Z,26.47
2022-08-03T10:16:21.762Z,26.47
2022-08-03T10:16:29.624Z,26.49
2022-08-03T10:17:17.762Z,26.49
2022-08-03T10:18:17.457Z,26.46
2022-08-03T10:19:17.489Z,26.44
2022-08-03T10:20:17.448Z,26.46
2022-08-03T10:21:17.467Z,26.46
2022-08-03T10:22:17.455Z,26.46
2022-08-03T10:23:17.444Z,26.49
2022-08-03T10:24:17.405Z,26.50
2022-08-03T10:25:17.402Z,26.52
2022-08-03T10:26:17.518Z,26.57
2022-08-03T10:27:17.623Z,26.58
2022-08-03T10:28:17.411Z,26.62
2022-08-03T10:29:17.412Z,26.64
2022-08-03T10:30:17.350Z,26.67
2022-08-03T10:31:17.345Z,26.65
2022-08-03T10:32:18.243Z,26.68
2022-08-03T10:33:50.292Z,26.69
2022-08-03T10:34:17.344Z,26.74
2022-08-03T10:35:20.517Z,26.80
2022-08-03T10:36:17.294Z,26.84
2022-08-03T10:37:17.588Z,26.83
2022-08-03T10:38:18.612Z,26.84
2022-08-03T10:39:18.239Z,26.84
2022-08-03T10:40:33.405Z,26.86
2022-08-03T10:41:17.403Z,26.89
2022-08-03T10:42:17.388Z,26.86
2022-08-03T10:43:18.481Z,26.80
2022-08-03T10:44:17.247Z,26.81
2022-08-03T10:45:17.256Z,26.86
2022-08-03T10:46:17.221Z,26.89
2022-08-03T10:47:17.522Z,26.92
2022-08-03T10:48:17.234Z,26.94
2022-08-03T10:49:33.991Z,26.94
2022-08-03T10:50:17.199Z,26.95
2022-08-03T10:51:17.185Z,26.96
2022-08-03T10:52:31.446Z,26.98
2022-08-03T10:53:20.075Z,26.99
2022-08-03T10:54:17.163Z,27.05
2022-08-03T10:55:17.159Z,27.06
2022-08-03T10:56:17.114Z,27.11
2022-08-03T10:57:17.365Z,27.14
2022-08-03T10:58:30.288Z,27.17
2022-08-03T10:59:27.552Z,27.21
2022-08-03T11:00:17.089Z,27.24
2022-08-03T11:01:17.201Z,27.29
2022-08-03T11:02:17.076Z,27.29
2022-08-03T11:03:17.107Z,27.31
2022-08-03T11:04:17.198Z,27.32
2022-08-03T11:05:17.047Z,27.35
2022-08-03T11:06:17.030Z,27.36
2022-08-03T11:07:17.228Z,27.42
2022-08-03T11:08:17.344Z,27.43
2022-08-03T11:09:17.014Z,27.50
2022-08-03T11:10:16.988Z,27.51
2022-08-03T11:11:16.991Z,27.48
2022-08-03T11:12:16.975Z,27.47
2022-08-03T11:13:17.026Z,27.47
2022-08-03T11:14:16.989Z,27.48
2022-08-03T11:15:16.949Z,27.50
2022-08-03T11:16:19.879Z,27.51
2022-08-03T11:17:17.372Z,27.54
2022-08-03T11:18:16.929Z,27.57
2022-08-03T11:19:16.930Z,27.58
2022-08-03T11:20:16.901Z,27.64
2022-08-03T11:21:16.899Z,27.64
2022-08-03T11:22:16.885Z,27.61
2022-08-03T11:23:16.883Z,27.62
2022-08-03T11:24:16.881Z,27.67
2022-08-03T11:25:54.249Z,27.70
2022-08-03T11:26:16.853Z,27.73
2022-08-03T11:27:17.127Z,27.73
2022-08-03T11:28:16.836Z,27.73
2022-08-03T11:29:16.859Z,27.76
2022-08-03T11:30:16.830Z,27.77
2022-08-03T11:31:32.957Z,27.77
2022-08-03T11:32:19.563Z,27.82
2022-08-03T11:33:16.791Z,27.82
2022-08-03T11:34:16.780Z,27.79
2022-08-03T11:35:16.802Z,27.79
2022-08-03T11:36:32.262Z,27.79
2022-08-03T11:37:17.097Z,27.80
2022-08-03T11:38:16.742Z,27.79
2022-08-03T11:39:17.206Z,27.84
2022-08-03T11:40:16.743Z,27.86
2022-08-03T11:41:16.718Z,27.89
2022-08-03T11:42:16.709Z,27.88
2022-08-03T11:43:16.710Z,27.88
2022-08-03T11:44:16.885Z,27.91
2022-08-03T11:45:16.706Z,27.94
2022-08-03T11:46:28.089Z,27.96
2022-08-03T11:47:16.979Z,28.01
2022-08-03T11:48:16.654Z,28.04
2022-08-03T11:49:16.721Z,28.06
2022-08-03T11:50:16.656Z,28.07
2022-08-03T11:51:16.632Z,28.11
2022-08-03T11:52:16.635Z,28.16
2022-08-03T11:53:16.613Z,28.21
2022-08-03T11:54:16.605Z,28.19
2022-08-03T11:55:16.613Z,28.19
2022-08-03T11:56:16.593Z,28.16
2022-08-03T11:57:16.768Z,28.13
2022-08-03T11:59:12.805Z,28.14
2022-08-03T11:59:24.365Z,28.16
2022-08-03T12:00:16.590Z,28.17
2022-08-03T12:01:21.242Z,28.17
2022-08-03T12:02:16.547Z,28.19
2022-08-03T12:03:16.587Z,28.17
2022-08-03T12:04:16.711Z,28.17
2022-08-03T12:05:16.506Z,28.14
2022-08-03T12:06:16.512Z,28.14
2022-08-03T12:08:02.559Z,28.21
2022-08-03T12:08:16.642Z,28.23
2022-08-03T12:09:16.473Z,28.26
2022-08-03T12:10:16.464Z,28.26
2022-08-03T12:11:16.485Z,28.31
2022-08-03T12:12:16.445Z,28.32
2022-08-03T12:14:37.373Z,28.32
2022-08-03T12:14:54.154Z,28.33
2022-08-03T12:15:16.446Z,28.36
2022-08-03T12:16:16.428Z,28.40
2022-08-03T12:17:16.709Z,28.41
2022-08-03T12:18:16.391Z,28.44
2022-08-03T12:19:16.384Z,28.44
2022-08-03T12:20:16.379Z,28.47
2022-08-03T12:21:16.387Z,28.46
2022-08-03T12:22:16.353Z,28.44
2022-08-03T12:23:16.347Z,28.46
2022-08-03T12:24:16.339Z,28.47
2022-08-03T12:25:16.411Z,28.47
2022-08-03T12:26:16.364Z,28.48
2022-08-03T12:27:16.595Z,28.50
2022-08-03T12:28:28.385Z,28.54
2022-08-03T12:29:16.301Z,28.58
2022-08-03T12:30:16.285Z,28.58
2022-08-03T12:31:16.270Z,28.58
2022-08-03T12:32:16.281Z,28.56
2022-08-03T12:33:16.303Z,28.58
2022-08-03T12:34:16.253Z,28.59
2022-08-03T12:35:16.300Z,28.65
2022-08-03T12:36:16.230Z,28.68
2022-08-03T12:37:22.263Z,28.70
2022-08-03T12:38:16.223Z,28.72
2022-08-03T12:39:16.209Z,28.72
2022-08-03T12:40:20.570Z,28.70
2022-08-03T12:41:16.206Z,28.72
2022-08-03T12:42:16.206Z,28.72
2022-08-03T12:43:16.252Z,28.75
2022-08-03T12:44:17.968Z,28.77
2022-08-03T12:45:16.150Z,28.77
2022-08-03T12:46:16.147Z,28.78
2022-08-03T12:47:16.157Z,28.82
2022-08-03T12:48:16.160Z,28.88
2022-08-03T12:49:16.158Z,28.88
2022-08-03T12:50:16.125Z,28.90
2022-08-03T12:51:16.123Z,28.88
2022-08-03T12:52:16.088Z,28.90